createdAt,value
2023-04-19T00:01:09.766Z,76.09
2023-04-19T00:16:09.628Z,74.71
2023-04-19T00:31:09.534Z,74.22
2023-04-19T00:46:09.342Z,69.78
2023-04-19T01:02:36.795Z,71.57
2023-04-19T01:16:08.995Z,71.39
2023-04-19T01:31:08.869Z,71.67
2023-04-19T01:46:08.753Z,74.53
2023-04-19T02:01:08.647Z,75.05
2023-04-19T02:16:08.380Z,76.23
2023-04-19T02:31:08.193Z,76.16
2023-04-19T02:46:08.063Z,75.74
2023-04-19T03:01:07.980Z,78.03
2023-04-19T03:16:07.772Z,80.94
2023-04-19T03:31:07.686Z,82.60
2023-04-19T03:46:07.412Z,83.05
2023-04-19T04:01:07.213Z,84.78
2023-04-19T04:16:07.085Z,86.90
2023-04-19T04:31:06.961Z,87.90
2023-04-19T04:46:06.847Z,89.04
2023-04-19T05:01:06.710Z,89.67
2023-04-19T05:16:06.487Z,87.82
2023-04-19T05:31:06.316Z,87.26
2023-04-19T05:46:06.198Z,86.45
2023-04-19T06:01:06.082Z,84.72
2023-04-19T06:16:05.912Z,81.95
2023-04-19T06:31:05.699Z,78.28
2023-04-19T06:46:05.592Z,67.17
2023-04-19T07:01:05.398Z,62.41
2023-04-19T07:16:05.498Z,58.03
2023-04-19T07:31:05.033Z,56.87
2023-04-19T07:46:05.040Z,55.00
2023-04-19T08:01:04.716Z,53.92
2023-04-19T08:16:40.263Z,50.61
2023-04-19T08:31:04.421Z,51.15
2023-04-19T08:46:04.390Z,50.99
2023-04-19T09:01:04.114Z,51.97
2023-04-19T09:16:04.000Z,52.37
2023-04-19T09:31:23.620Z,48.11
2023-04-19T09:46:03.704Z,47.99
2023-04-19T10:01:14.288Z,50.44
2023-04-19T10:16:15.537Z,46.72
2023-04-19T10:31:03.152Z,46.28
2023-04-19T10:46:03.053Z,45.87
2023-04-19T11:01:02.889Z,47.95
2023-04-19T11:16:04.297Z,47.90
2023-04-19T11:31:03.664Z,49.19
2023-04-19T11:46:02.339Z,51.32
2023-04-19T12:01:02.240Z,49.37
2023-04-19T12:16:02.042Z,46.38
2023-04-19T12:31:01.865Z,48.24
2023-04-19T12:46:01.790Z,49.54
2023-04-19T13:01:01.609Z,48.73
2023-04-19T13:16:01.401Z,48.15
2023-04-19T13:31:01.206Z,49.16
2023-04-19T13:46:01.007Z,50.02
2023-04-19T14:01:00.904Z,52.65
2023-04-19T14:16:00.804Z,56.82
2023-04-19T14:31:00.562Z,54.64
2023-04-19T14:46:00.540Z,55.69
2023-04-19T15:01:00.329Z,58.92
2023-04-19T15:16:03.123Z,71.38
2023-04-19T15:31:01.890Z,87.73
2023-04-19T15:46:00.918Z,92.64
2023-04-19T16:00:59.599Z,92.07
2023-04-19T16:16:01.479Z,94.22
2023-04-19T16:30:59.327Z,93.35
2023-04-19T16:45:59.169Z,94.34
2023-04-19T17:00:59.125Z,98.00
2023-04-19T17:15:59.006Z,96.34
2023-04-19T17:30:58.766Z,99.99
2023-04-19T17:45:58.690Z,99.34
2023-04-19T18:00:58.480Z,99.55
2023-04-19T18:15:59.140Z,99.55
2023-04-19T18:30:58.096Z,99.96
2023-04-19T18:45:57.995Z,99.99
2023-04-19T19:00:57.760Z,99.99
2023-04-19T19:15:57.662Z,99.99
2023-04-19T19:30:57.485Z,99.99
2023-04-19T19:45:57.451Z,99.99
2023-04-19T20:00:57.163Z,99.99
2023-04-19T20:15:57.096Z,99.99
2023-04-19T20:30:56.859Z,99.99
2023-04-19T20:45:56.808Z,99.99
2023-04-19T21:00:56.563Z,99.99
2023-04-19T21:15:56.424Z,99.99
2023-04-19T21:30:56.279Z,99.99
2023-04-19T21:45:56.135Z,99.99
2023-04-19T22:00:56.015Z,99.99
2023-04-19T22:15:55.799Z,99.99
2023-04-19T22:30:55.636Z,99.99
2023-04-19T22:45:55.506Z,99.99
2023-04-19T23:00:55.382Z,99.99
2023-04-19T23:15:55.181Z,99.99
2023-04-19T23:30:55.030Z,99.99
2023-04-19T23:45:54.859Z,99.99
